createdAt,value
2019-05-05T00:00:15.636Z,100027.11
2019-05-05T00:03:00.004Z,100018.45
2019-05-05T00:05:30.952Z,100020.80
2019-05-05T00:07:58.746Z,100018.58
2019-05-05T00:10:34.816Z,100019.28
2019-05-05T00:13:14.926Z,100023.05
2019-05-05T00:16:01.051Z,100032.89
2019-05-05T00:18:30.383Z,100028.95
2019-05-05T00:20:58.151Z,100031.22
2019-05-05T00:23:25.995Z,100042.35
2019-05-05T00:25:55.273Z,100048.89
2019-05-05T00:28:24.842Z,100049.31
2019-05-05T00:30:52.867Z,100051.90
2019-05-05T00:33:20.642Z,100042.05
2019-05-05T00:35:48.457Z,100048.13
2019-05-05T00:38:16.237Z,100050.79
2019-05-05T00:40:44.381Z,100059.94
2019-05-05T00:43:14.591Z,100057.95
2019-05-05T00:45:45.087Z,100055.78
2019-05-05T00:48:21.748Z,100062.95
2019-05-05T00:50:51.801Z,100068.53
2019-05-05T00:53:19.309Z,100077.02
2019-05-05T00:55:47.149Z,100074.83
2019-05-05T00:58:14.946Z,100084.52
2019-05-05T01:00:54.864Z,100079.20
2019-05-05T01:03:24.476Z,100081.84
2019-05-05T01:06:10.322Z,100087.98
2019-05-05T01:08:38.114Z,100092.17
2019-05-05T01:11:05.903Z,100084.17
2019-05-05T01:13:35.184Z,100096.42
2019-05-05T01:16:04.824Z,100099.66
2019-05-05T01:18:34.973Z,100104.70
2019-05-05T01:21:04.555Z,100112.44
2019-05-05T01:23:32.440Z,100112.97
2019-05-05T01:26:00.279Z,100115.84
2019-05-05T01:28:28.060Z,100123.70
2019-05-05T01:30:59.846Z,100130.62
2019-05-05T01:33:56.424Z,100133.88
2019-05-05T01:36:24.320Z,100129.22
2019-05-05T01:39:09.292Z,100142.27
2019-05-05T01:41:40.748Z,100140.44
2019-05-05T01:44:08.559Z,100142.23
2019-05-05T01:46:36.340Z,100147.88
2019-05-05T01:49:05.337Z,100158.91
2019-05-05T01:51:35.357Z,100159.62
2019-05-05T01:54:05.030Z,100164.52
2019-05-05T01:56:35.199Z,100164.23
2019-05-05T01:59:05.125Z,100160.58
2019-05-05T02:01:35.069Z,100169.06
2019-05-05T02:04:02.971Z,100177.59
2019-05-05T02:06:30.805Z,100184.92
2019-05-05T02:08:58.599Z,100188.06
2019-05-05T02:11:26.394Z,100191.72
2019-05-05T02:13:54.675Z,100193.83
2019-05-05T02:16:22.617Z,100195.63
2019-05-05T02:18:50.439Z,100197.22
2019-05-05T02:21:18.219Z,100201.22
2019-05-05T02:23:46.019Z,100197.21
2019-05-05T02:26:15.324Z,100202.66
2019-05-05T02:28:58.922Z,100198.05
2019-05-05T02:31:36.048Z,100205.50
2019-05-05T02:34:05.472Z,100207.25
2019-05-05T02:36:35.445Z,100210.79
2019-05-05T02:39:05.458Z,100211.02
2019-05-05T02:41:34.832Z,100220.11
2019-05-05T02:44:05.069Z,100219.81
2019-05-05T02:46:44.560Z,100215.69
2019-05-05T02:49:14.899Z,100218.94
2019-05-05T02:51:44.747Z,100223.73
2019-05-05T02:54:13.713Z,100226.06
2019-05-05T02:56:47.312Z,100227.94
2019-05-05T02:59:39.402Z,100227.05
2019-05-05T03:02:19.682Z,100235.58
2019-05-05T03:04:47.721Z,100233.16
2019-05-05T03:07:17.900Z,100233.69
2019-05-05T03:09:48.740Z,100240.48
2019-05-05T03:12:19.732Z,100239.84
2019-05-05T03:14:53.683Z,100240.31
2019-05-05T03:17:23.450Z,100245.84
2019-05-05T03:19:53.566Z,100254.34
2019-05-05T03:22:23.681Z,100260.81
2019-05-05T03:24:54.117Z,100270.97
2019-05-05T03:27:23.722Z,100274.76
2019-05-05T03:29:53.525Z,100274.78
2019-05-05T03:32:24.883Z,100271.28
2019-05-05T03:34:53.562Z,100277.08
2019-05-05T03:37:21.556Z,100273.55
2019-05-05T03:39:56.235Z,100273.23
2019-05-05T03:42:39.948Z,100278.76
2019-05-05T03:45:21.078Z,100278.41
2019-05-05T03:47:49.772Z,100283.24
2019-05-05T03:50:17.791Z,100277.72
2019-05-05T03:52:45.894Z,100279.39
2019-05-05T03:55:13.926Z,100279.22
2019-05-05T03:57:44.507Z,100282.72
2019-05-05T04:00:14.761Z,100282.08
2019-05-05T04:03:07.981Z,100283.53
2019-05-05T04:05:54.315Z,100287.03
2019-05-05T04:08:23.515Z,100291.20
2019-05-05T04:10:51.681Z,100291.37
2019-05-05T04:13:19.601Z,100289.70
2019-05-05T04:16:07.374Z,100290.36
2019-05-05T04:18:39.805Z,100286.39
2019-05-05T04:21:07.598Z,100288.76
2019-05-05T04:23:35.405Z,100286.59
2019-05-05T04:26:03.832Z,100288.41
2019-05-05T04:28:31.661Z,100288.93
2019-05-05T04:30:59.445Z,100295.58
2019-05-05T04:33:27.263Z,100303.54
2019-05-05T04:35:55.042Z,100294.20
2019-05-05T04:38:24.323Z,100299.36
2019-05-05T04:40:54.185Z,100305.55
2019-05-05T04:43:21.942Z,100308.19
2019-05-05T04:45:49.734Z,100302.88
2019-05-05T04:48:24.262Z,100306.52
2019-05-05T04:51:17.596Z,100308.52
2019-05-05T04:54:03.902Z,100317.20
2019-05-05T04:56:34.114Z,100314.84
2019-05-05T04:59:03.840Z,100315.99
2019-05-05T05:01:33.087Z,100312.86
2019-05-05T05:04:08.466Z,100314.68
2019-05-05T05:06:43.640Z,100320.51
2019-05-05T05:09:11.460Z,100326.13
2019-05-05T05:11:39.277Z,100327.63
2019-05-05T05:14:07.108Z,100332.28
2019-05-05T05:16:35.689Z,100335.13
2019-05-05T05:19:04.324Z,100328.62
2019-05-05T05:21:34.126Z,100332.47
2019-05-05T05:24:03.862Z,100333.08
2019-05-05T05:26:33.596Z,100345.17
2019-05-05T05:29:01.495Z,100343.23
2019-05-05T05:31:29.284Z,100358.27
2019-05-05T05:33:57.094Z,100356.35
2019-05-05T05:36:24.993Z,100357.31
2019-05-05T05:38:55.218Z,100353.88
2019-05-05T05:41:43.564Z,100363.89
2019-05-05T05:44:30.068Z,100358.63
2019-05-05T05:47:17.461Z,100352.69
2019-05-05T05:50:04.855Z,100365.77
2019-05-05T05:52:34.367Z,100364.36
2019-05-05T05:55:04.096Z,100366.63
2019-05-05T05:57:32.009Z,100371.30
2019-05-05T05:59:59.843Z,100364.95
2019-05-05T06:02:27.641Z,100371.73
2019-05-05T06:04:55.441Z,100375.47
2019-05-05T06:07:24.493Z,100377.27
2019-05-05T06:09:54.137Z,100375.70
2019-05-05T06:12:22.103Z,100378.93
2019-05-05T06:14:50.128Z,100382.75
2019-05-05T06:17:18.031Z,100384.45
2019-05-05T06:19:45.819Z,100389.89
2019-05-05T06:22:15.223Z,100389.51
2019-05-05T06:24:43.982Z,100396.19
2019-05-05T06:27:14.101Z,100403.63
2019-05-05T06:29:43.633Z,100399.47
2019-05-05T06:32:11.394Z,100390.70
2019-05-05T06:34:41.218Z,100383.33
2019-05-05T06:37:09.018Z,100387.81
2019-05-05T06:39:36.844Z,100390.27
2019-05-05T06:42:23.702Z,100377.88
2019-05-05T06:44:55.809Z,100384.81
2019-05-05T06:47:29.654Z,100379.78
2019-05-05T06:49:57.490Z,100378.87
2019-05-05T06:52:25.305Z,100383.61
2019-05-05T06:54:54.266Z,100377.58
2019-05-05T06:57:24.027Z,100376.69
2019-05-05T06:59:54.249Z,100368.63
2019-05-05T07:02:23.677Z,100370.28
2019-05-05T07:04:51.746Z,100377.39
2019-05-05T07:07:19.551Z,100378.03
2019-05-05T07:09:48.810Z,100374.41
2019-05-05T07:12:16.633Z,100378.77
2019-05-05T07:14:44.686Z,100374.48
2019-05-05T07:17:14.091Z,100380.60
2019-05-05T07:19:42.108Z,100379.87
2019-05-05T07:22:09.973Z,100387.13
2019-05-05T07:24:37.875Z,100389.84
2019-05-05T07:27:05.802Z,100386.13
2019-05-05T07:29:34.288Z,100385.13
2019-05-05T07:32:03.987Z,100383.04
2019-05-05T07:34:50.049Z,100389.18
2019-05-05T07:37:17.859Z,100390.88
2019-05-05T07:39:45.657Z,100386.11
2019-05-05T07:42:13.773Z,100387.36
2019-05-05T07:44:41.620Z,100385.87
2019-05-05T07:47:09.487Z,100382.61
2019-05-05T07:49:37.299Z,100385.42
2019-05-05T07:52:05.154Z,100390.91
2019-05-05T07:54:34.195Z,100394.42
2019-05-05T07:57:04.060Z,100400.69
2019-05-05T07:59:33.895Z,100399.10
2019-05-05T08:02:03.874Z,100404.79
2019-05-05T08:04:31.347Z,100415.71
2019-05-05T08:06:59.157Z,100418.41
2019-05-05T08:09:26.966Z,100410.02
2019-05-05T08:11:54.802Z,100414.61
2019-05-05T08:14:24.521Z,100406.99
2019-05-05T08:17:23.664Z,100413.22
2019-05-05T08:19:55.262Z,100421.38
2019-05-05T08:22:23.616Z,100431.62
2019-05-05T08:25:15.656Z,100436.17
2019-05-05T08:27:57.528Z,100429.59
2019-05-05T08:30:50.777Z,100433.82
2019-05-05T08:33:18.626Z,100438.71
2019-05-05T08:35:46.462Z,100440.64
2019-05-05T08:38:17.241Z,100442.96
2019-05-05T08:40:45.076Z,100435.42
2019-05-05T08:43:13.844Z,100431.03
2019-05-05T08:45:44.205Z,100432.17
2019-05-05T08:48:11.653Z,100428.80
2019-05-05T08:50:39.617Z,100430.94
2019-05-05T08:53:08.574Z,100433.11
2019-05-05T08:55:36.686Z,100444.83
2019-05-05T08:58:04.736Z,100437.48
2019-05-05T09:00:33.828Z,100447.47
2019-05-05T09:03:03.862Z,100449.47
2019-05-05T09:05:31.586Z,100450.41
2019-05-05T09:07:59.507Z,100447.84
2019-05-05T09:10:27.336Z,100446.02
2019-05-05T09:12:55.153Z,100444.31
2019-05-05T09:15:24.279Z,100449.37
2019-05-05T09:17:54.409Z,100456.22
2019-05-05T09:20:24.063Z,100449.50
2019-05-05T09:22:53.573Z,100436.88
2019-05-05T09:25:47.020Z,100425.27
2019-05-05T09:28:21.102Z,100416.44
2019-05-05T09:30:49.654Z,100422.33
2019-05-05T09:33:18.400Z,100421.98
2019-05-05T09:35:46.727Z,100434.07
2019-05-05T09:38:14.850Z,100434.05
2019-05-05T09:40:44.571Z,100427.92
2019-05-05T09:43:14.533Z,100416.43
2019-05-05T09:45:44.165Z,100401.91
2019-05-05T09:48:14.006Z,100392.45
2019-05-05T09:50:43.674Z,100400.19
2019-05-05T09:53:11.783Z,100402.03
2019-05-05T09:55:39.579Z,100416.97
2019-05-05T09:58:07.387Z,100426.41
2019-05-05T10:00:39.778Z,100430.27
2019-05-05T10:03:07.741Z,100443.87
2019-05-05T10:05:35.545Z,100446.48
2019-05-05T10:08:03.668Z,100445.19
2019-05-05T10:10:33.572Z,100453.01
2019-05-05T10:13:01.637Z,100460.09
2019-05-05T10:15:29.417Z,100459.59
2019-05-05T10:17:57.267Z,100443.63
2019-05-05T10:20:25.061Z,100429.56
2019-05-05T10:22:54.249Z,100432.98
2019-05-05T10:25:54.058Z,100433.55
2019-05-05T10:28:23.882Z,100441.79
2019-05-05T10:30:53.756Z,100447.37
2019-05-05T10:33:21.636Z,100452.34
2019-05-05T10:35:49.488Z,100451.41
2019-05-05T10:38:17.286Z,100461.02
2019-05-05T10:40:48.176Z,100455.20
2019-05-05T10:43:15.026Z,100463.78
2019-05-05T10:45:44.073Z,100474.20
2019-05-05T10:48:13.772Z,100468.34
2019-05-05T10:50:41.743Z,100463.71
2019-05-05T10:53:09.574Z,100466.78
2019-05-05T10:55:37.497Z,100458.52
2019-05-05T10:58:05.338Z,100465.62
2019-05-05T11:00:50.709Z,100465.70
2019-05-05T11:03:18.933Z,100464.88
2019-05-05T11:05:48.702Z,100459.21
2019-05-05T11:08:16.720Z,100461.98
2019-05-05T11:10:45.147Z,100455.50
2019-05-05T11:13:13.117Z,100444.55
2019-05-05T11:15:40.985Z,100439.08
2019-05-05T11:18:08.797Z,100441.36
2019-05-05T11:20:36.714Z,100438.91
2019-05-05T11:23:04.968Z,100440.97
2019-05-05T11:25:33.707Z,100434.88
2019-05-05T11:28:03.611Z,100434.74
2019-05-05T11:30:35.010Z,100437.27
2019-05-05T11:33:21.329Z,100434.85
2019-05-05T11:36:17.018Z,100423.19
2019-05-05T11:38:44.850Z,100429.03
2019-05-05T11:41:14.377Z,100427.34
2019-05-05T11:43:42.420Z,100424.75
2019-05-05T11:46:10.344Z,100432.29
2019-05-05T11:48:38.159Z,100427.84
2019-05-05T11:51:06.007Z,100423.78
2019-05-05T11:53:34.052Z,100436.13
2019-05-05T11:56:04.025Z,100443.77
2019-05-05T11:58:33.921Z,100446.17
2019-05-05T12:01:03.536Z,100450.34
2019-05-05T12:03:31.321Z,100447.84
2019-05-05T12:05:59.784Z,100451.71
2019-05-05T12:08:27.611Z,100453.81
2019-05-05T12:10:59.642Z,100462.66
2019-05-05T12:13:27.562Z,100451.62
2019-05-05T12:16:06.895Z,100454.92
2019-05-05T12:18:34.880Z,100453.02
2019-05-05T12:21:04.872Z,100443.75
2019-05-05T12:23:33.937Z,100434.06
2019-05-05T12:26:24.224Z,100434.67
2019-05-05T12:28:57.250Z,100445.38
2019-05-05T12:31:26.898Z,100443.78
2019-05-05T12:33:55.633Z,100441.50
2019-05-05T12:36:23.840Z,100444.85
2019-05-05T12:38:54.602Z,100450.70
2019-05-05T12:41:23.867Z,100452.89
2019-05-05T12:43:54.585Z,100455.16
2019-05-05T12:46:44.330Z,100453.97
2019-05-05T12:49:13.870Z,100451.91
2019-05-05T12:51:43.552Z,100431.35
2019-05-05T12:54:11.655Z,100427.47
2019-05-05T12:56:39.502Z,100430.74
2019-05-05T12:59:14.191Z,100424.84
2019-05-05T13:01:44.152Z,100431.45
2019-05-05T13:04:14.014Z,100424.58
2019-05-05T13:06:41.864Z,100421.00
2019-05-05T13:09:09.675Z,100424.25
2019-05-05T13:11:37.491Z,100417.38
2019-05-05T13:14:05.374Z,100422.41
2019-05-05T13:16:33.177Z,100421.69
2019-05-05T13:19:04.392Z,100417.81
2019-05-05T13:21:58.077Z,100410.04
2019-05-05T13:24:43.616Z,100416.52
2019-05-05T13:27:19.780Z,100413.94
2019-05-05T13:29:47.800Z,100416.47
2019-05-05T13:32:15.608Z,100426.75
2019-05-05T13:34:43.856Z,100427.96
2019-05-05T13:37:13.973Z,100420.72
2019-05-05T13:39:41.565Z,100419.05
2019-05-05T13:42:09.396Z,100433.75
2019-05-05T13:44:54.714Z,100436.63
2019-05-05T13:47:23.866Z,100429.67
2019-05-05T13:49:54.282Z,100436.40
2019-05-05T13:52:24.190Z,100439.28
2019-05-05T13:54:51.863Z,100437.88
2019-05-05T13:57:19.639Z,100436.31
2019-05-05T13:59:47.517Z,100439.82
2019-05-05T14:02:15.512Z,100440.51
2019-05-05T14:04:43.925Z,100447.05
2019-05-05T14:07:11.848Z,100444.33
2019-05-05T14:09:39.704Z,100440.83
2019-05-05T14:12:07.590Z,100439.30
2019-05-05T14:14:35.421Z,100449.48
2019-05-05T14:17:04.127Z,100440.48
2019-05-05T14:19:34.079Z,100440.94
2019-05-05T14:22:04.210Z,100437.86
2019-05-05T14:24:44.438Z,100434.66
2019-05-05T14:27:14.354Z,100432.67
2019-05-05T14:29:59.593Z,100435.19
2019-05-05T14:32:30.874Z,100429.66
2019-05-05T14:35:14.870Z,100426.24
2019-05-05T14:37:48.838Z,100436.20
2019-05-05T14:40:16.876Z,100439.72
2019-05-05T14:42:44.685Z,100444.19
2019-05-05T14:45:15.340Z,100440.76
2019-05-05T14:47:44.174Z,100442.47
2019-05-05T14:50:13.257Z,100429.91
2019-05-05T14:52:41.102Z,100438.08
2019-05-05T14:55:09.304Z,100436.87
2019-05-05T14:57:37.132Z,100441.47
2019-05-05T15:00:06.228Z,100439.53
2019-05-05T15:02:34.788Z,100437.45
2019-05-05T15:05:20.990Z,100439.27
2019-05-05T15:08:00.519Z,100431.73
2019-05-05T15:10:46.913Z,100432.18
2019-05-05T15:13:14.867Z,100434.41
2019-05-05T15:15:42.799Z,100429.14
2019-05-05T15:18:10.657Z,100429.80
2019-05-05T15:20:38.479Z,100422.72
2019-05-05T15:23:06.339Z,100428.77
2019-05-05T15:25:34.262Z,100426.63
2019-05-05T15:28:02.227Z,100423.52
2019-05-05T15:30:30.075Z,100421.75
2019-05-05T15:32:57.933Z,100419.44
2019-05-05T15:35:25.828Z,100422.81
2019-05-05T15:37:54.266Z,100426.06
2019-05-05T15:40:22.298Z,100421.70
2019-05-05T15:42:50.228Z,100424.61
2019-05-05T15:45:18.135Z,100426.78
2019-05-05T15:47:46.001Z,100424.26
2019-05-05T15:50:14.473Z,100423.77
2019-05-05T15:52:44.077Z,100429.30
2019-05-05T15:55:14.098Z,100436.42
2019-05-05T15:57:44.080Z,100438.48
2019-05-05T16:00:14.102Z,100428.89
2019-05-05T16:02:43.988Z,100428.66
2019-05-05T16:05:13.741Z,100427.06
2019-05-05T16:07:43.816Z,100433.73
2019-05-05T16:10:13.769Z,100432.92
2019-05-05T16:12:41.816Z,100428.49
2019-05-05T16:15:28.522Z,100433.61
2019-05-05T16:18:28.116Z,100428.04
2019-05-05T16:21:21.430Z,100426.45
2019-05-05T16:23:54.331Z,100436.44
2019-05-05T16:26:24.415Z,100440.37
2019-05-05T16:28:55.027Z,100435.29
2019-05-05T16:31:23.504Z,100439.48
2019-05-05T16:33:51.567Z,100433.05
2019-05-05T16:36:19.448Z,100445.67
2019-05-05T16:38:47.292Z,100445.81
2019-05-05T16:41:15.462Z,100442.88
2019-05-05T16:43:44.250Z,100432.44
2019-05-05T16:46:16.698Z,100441.02
2019-05-05T16:48:43.798Z,100448.40
2019-05-05T16:51:14.185Z,100442.42
2019-05-05T16:53:42.163Z,100442.36
2019-05-05T16:56:14.022Z,100434.48
2019-05-05T16:58:41.921Z,100436.58
2019-05-05T17:01:14.380Z,100440.13
2019-05-05T17:03:45.375Z,100445.28
2019-05-05T17:06:14.027Z,100439.86
2019-05-05T17:08:44.203Z,100439.17
2019-05-05T17:11:11.787Z,100437.17
2019-05-05T17:14:17.387Z,100446.09
2019-05-05T17:16:57.079Z,100447.50
2019-05-05T17:19:56.434Z,100446.70
2019-05-05T17:22:37.731Z,100446.47
2019-05-05T17:25:08.040Z,100435.89
2019-05-05T17:27:47.666Z,100444.67
2019-05-05T17:30:06.285Z,100441.36
2019-05-05T17:32:34.465Z,100443.83
2019-05-05T17:35:03.865Z,100434.42
2019-05-05T17:37:33.549Z,100442.55
2019-05-05T17:40:09.065Z,100446.55
2019-05-05T17:43:01.627Z,100446.19
2019-05-05T17:45:47.474Z,100457.25
2019-05-05T17:48:20.919Z,100449.62
2019-05-05T17:51:06.616Z,100455.88
2019-05-05T17:54:09.188Z,100451.95
2019-05-05T17:56:37.090Z,100457.56
2019-05-05T17:59:05.121Z,100454.75
2019-05-05T18:01:33.611Z,100453.72
2019-05-05T18:04:01.568Z,100456.34
2019-05-05T18:06:36.510Z,100457.69
2019-05-05T18:09:11.238Z,100459.47
2019-05-05T18:11:44.874Z,100461.48
2019-05-05T18:14:18.322Z,100463.20
2019-05-05T18:16:46.153Z,100461.75
2019-05-05T18:19:14.094Z,100464.11
2019-05-05T18:21:43.816Z,100466.66
2019-05-05T18:24:13.656Z,100469.86
2019-05-05T18:26:43.439Z,100477.59
2019-05-05T18:29:11.216Z,100485.06
2019-05-05T18:31:39.131Z,100484.56
2019-05-05T18:34:06.928Z,100483.82
2019-05-05T18:36:34.820Z,100483.94
2019-05-05T18:39:04.993Z,100479.56
2019-05-05T18:41:38.388Z,100486.77
2019-05-05T18:44:17.497Z,100489.55
2019-05-05T18:46:47.246Z,100488.42
2019-05-05T18:49:17.450Z,100488.13
2019-05-05T18:51:45.275Z,100497.05
2019-05-05T18:54:13.117Z,100493.22
2019-05-05T18:56:40.929Z,100489.83
2019-05-05T18:59:08.756Z,100496.89
2019-05-05T19:01:45.182Z,100494.64
2019-05-05T19:04:41.767Z,100497.67
2019-05-05T19:07:23.850Z,100501.28
2019-05-05T19:09:54.337Z,100500.44
2019-05-05T19:12:21.515Z,100505.57
2019-05-05T19:14:49.775Z,100508.27
2019-05-05T19:17:17.623Z,100501.61
2019-05-05T19:19:49.417Z,100498.80
2019-05-05T19:22:17.225Z,100502.44
2019-05-05T19:24:45.092Z,100506.30
2019-05-05T19:27:14.195Z,100493.73
2019-05-05T19:29:45.978Z,100498.29
2019-05-05T19:32:11.947Z,100498.29
2019-05-05T19:34:43.966Z,100499.05
2019-05-05T19:37:13.889Z,100502.80
2019-05-05T19:39:41.676Z,100496.30
2019-05-05T19:42:09.503Z,100506.08
2019-05-05T19:44:37.340Z,100501.54
2019-05-05T19:47:17.302Z,100515.67
2019-05-05T19:49:51.511Z,100513.39
2019-05-05T19:52:19.337Z,100517.23
2019-05-05T19:54:47.643Z,100510.58
2019-05-05T19:57:15.566Z,100520.00
2019-05-05T19:59:44.745Z,100520.01
2019-05-05T20:02:12.800Z,100517.02
2019-05-05T20:04:40.644Z,100518.66
2019-05-05T20:07:08.814Z,100516.89
2019-05-05T20:09:36.689Z,100519.55
2019-05-05T20:12:04.531Z,100517.39
2019-05-05T20:14:34.274Z,100510.47
2019-05-05T20:17:07.793Z,100510.34
2019-05-05T20:19:43.746Z,100511.27
2019-05-05T20:22:11.408Z,100514.16
2019-05-05T20:24:39.266Z,100514.15
2019-05-05T20:27:07.099Z,100514.66
2019-05-05T20:29:37.382Z,100510.02
2019-05-05T20:32:04.973Z,100509.59
2019-05-05T20:34:40.951Z,100511.03
2019-05-05T20:37:14.116Z,100507.61
2019-05-05T20:39:43.971Z,100508.73
2019-05-05T20:42:12.050Z,100507.77
2019-05-05T20:44:40.684Z,100503.64
2019-05-05T20:47:08.492Z,100501.24
2019-05-05T20:49:36.306Z,100504.64
2019-05-05T20:52:04.089Z,100500.38
2019-05-05T20:54:31.911Z,100502.95
2019-05-05T20:56:59.719Z,100501.66
2019-05-05T20:59:30.856Z,100504.07
2019-05-05T21:01:57.286Z,100502.83
2019-05-05T21:04:25.147Z,100505.41
2019-05-05T21:06:52.989Z,100505.66
2019-05-05T21:09:20.797Z,100505.38
2019-05-05T21:11:48.604Z,100506.90
2019-05-05T21:14:16.463Z,100506.95
2019-05-05T21:16:44.265Z,100507.03
2019-05-05T21:19:14.056Z,100504.63
2019-05-05T21:21:44.692Z,100507.14
2019-05-05T21:24:12.583Z,100506.42
2019-05-05T21:27:00.785Z,100502.63
2019-05-05T21:29:39.494Z,100506.66
2019-05-05T21:31:58.318Z,100500.77
2019-05-05T21:34:26.319Z,100496.12
2019-05-05T21:36:54.273Z,100500.29
2019-05-05T21:39:22.163Z,100503.20
2019-05-05T21:41:50.270Z,100499.27
2019-05-05T21:44:18.106Z,100501.22
2019-05-05T21:46:45.906Z,100507.03
2019-05-05T21:49:13.855Z,100503.45
2019-05-05T21:52:08.096Z,100509.02
2019-05-05T21:54:44.069Z,100510.41
2019-05-05T21:57:40.318Z,100507.63
2019-05-05T22:00:28.566Z,100511.52
2019-05-05T22:02:56.683Z,100508.64
2019-05-05T22:05:24.577Z,100502.33
2019-05-05T22:07:53.911Z,100497.73
2019-05-05T22:10:21.809Z,100497.80
2019-05-05T22:12:49.661Z,100494.54
2019-05-05T22:15:17.510Z,100495.97
2019-05-05T22:17:45.290Z,100495.73
2019-05-05T22:20:20.307Z,100491.72
2019-05-05T22:22:48.770Z,100492.66
2019-05-05T22:25:16.615Z,100493.56
2019-05-05T22:27:44.452Z,100494.86
2019-05-05T22:30:14.198Z,100496.41
2019-05-05T22:32:43.969Z,100497.50
2019-05-05T22:35:14.074Z,100496.36
2019-05-05T22:37:43.814Z,100492.62
2019-05-05T22:40:19.844Z,100490.19
2019-05-05T22:42:47.770Z,100495.69
2019-05-05T22:45:15.712Z,100497.92
2019-05-05T22:47:43.547Z,100492.86
2019-05-05T22:50:13.889Z,100486.86
2019-05-05T22:52:41.900Z,100485.47
2019-05-05T22:55:10.309Z,100486.27
2019-05-05T22:57:38.204Z,100493.12
2019-05-05T23:00:23.834Z,100485.83
2019-05-05T23:02:44.451Z,100490.58
2019-05-05T23:05:30.149Z,100487.30
2019-05-05T23:07:58.011Z,100490.38
2019-05-05T23:10:25.789Z,100491.15
2019-05-05T23:12:54.430Z,100483.92
2019-05-05T23:15:25.311Z,100487.77
2019-05-05T23:17:57.897Z,100488.45
2019-05-05T23:20:55.593Z,100485.53
2019-05-05T23:23:43.005Z,100488.38
2019-05-05T23:26:13.919Z,100484.02
2019-05-05T23:28:44.260Z,100490.83
2019-05-05T23:31:11.715Z,100495.69
2019-05-05T23:33:39.656Z,100493.36
2019-05-05T23:36:07.444Z,100497.27
2019-05-05T23:38:35.251Z,100498.16
2019-05-05T23:41:03.856Z,100490.88
2019-05-05T23:43:31.886Z,100487.31
2019-05-05T23:45:59.672Z,100501.16
2019-05-05T23:48:28.211Z,100496.50
2019-05-05T23:50:56.022Z,100493.23
2019-05-05T23:53:24.897Z,100491.77
2019-05-05T23:55:54.646Z,100494.52
2019-05-05T23:58:23.993Z,100491.44
